ETD3KP OMDB-OOMS
Flight info
| Callsign | ETD3KP |
|---|---|
| Flight time | N/A |
| Altitude | 23000 |
| Route | ANVIX L223 TARDI N629 MUSUK T511 MCT |
| Aircraft | A320/M-SDE3FGHIRWY/LB1 |
Departure
| Time | 2026-05-07 14:57 |
|---|---|
| Airport | Dubai International Airport (OMDB) |
Arrival
| Time | N/A |
|---|---|
| Airport | Muscat International Airport (OOMS) |
| Time | Latitude | Longitude | Altitude | Speed | Heading |
|---|---|---|---|---|---|
| 2026-05-07 14:36 | 25.25413 | 55.35024 | 21 ft | 0 kts | 31° |
| 2026-05-07 14:46 | 25.25395 | 55.35012 | 21 ft | 3 kts | 31° |
| 2026-05-07 14:46 | 25.25375 | 55.34998 | 23 ft | 3 kts | 27° |
| 2026-05-07 14:47 | 25.25353 | 55.34989 | 24 ft | 3 kts | 6° |
| 2026-05-07 14:47 | 25.25332 | 55.34990 | 25 ft | 3 kts | 323° |
| 2026-05-07 14:47 | 25.25325 | 55.34998 | 22 ft | 0 kts | 302° |
| 2026-05-07 14:49 | 25.25328 | 55.34993 | 24 ft | 3 kts | 302° |
| 2026-05-07 14:49 | 25.25354 | 55.34947 | 21 ft | 10 kts | 303° |
| 2026-05-07 14:49 | 25.25417 | 55.34896 | 21 ft | 14 kts | 346° |
| 2026-05-07 14:50 | 25.25513 | 55.34928 | 21 ft | 16 kts | 31° |
| 2026-05-07 14:50 | 25.25616 | 55.34997 | 21 ft | 18 kts | 32° |
| 2026-05-07 14:50 | 25.25731 | 55.35076 | 24 ft | 19 kts | 33° |
| 2026-05-07 14:50 | 25.25759 | 55.35194 | 23 ft | 17 kts | 57° |
| 2026-05-07 14:51 | 25.25860 | 55.35276 | 21 ft | 19 kts | 31° |
| 2026-05-07 14:51 | 25.25974 | 55.35364 | 24 ft | 21 kts | 52° |
| 2026-05-07 14:51 | 25.25997 | 55.35525 | 22 ft | 23 kts | 105° |
| 2026-05-07 14:51 | 25.25918 | 55.35685 | 22 ft | 25 kts | 121° |
| 2026-05-07 14:52 | 25.25823 | 55.35852 | 24 ft | 26 kts | 122° |
| 2026-05-07 14:52 | 25.25726 | 55.36025 | 22 ft | 27 kts | 122° |
| 2026-05-07 14:52 | 25.25626 | 55.36204 | 25 ft | 28 kts | 122° |
| 2026-05-07 14:52 | 25.25524 | 55.36387 | 22 ft | 29 kts | 122° |
| 2026-05-07 14:53 | 25.25413 | 55.36580 | 22 ft | 31 kts | 122° |
| 2026-05-07 14:53 | 25.25296 | 55.36788 | 22 ft | 31 kts | 121° |
| 2026-05-07 14:53 | 25.25189 | 55.36982 | 23 ft | 25 kts | 121° |
| 2026-05-07 14:53 | 25.25095 | 55.37147 | 23 ft | 26 kts | 122° |
| 2026-05-07 14:54 | 25.24995 | 55.37321 | 23 ft | 28 kts | 122° |
| 2026-05-07 14:54 | 25.24901 | 55.37494 | 25 ft | 23 kts | 120° |
| 2026-05-07 14:54 | 25.24810 | 55.37654 | 23 ft | 26 kts | 122° |
| 2026-05-07 14:54 | 25.24731 | 55.37797 | 23 ft | 11 kts | 118° |
| 2026-05-07 14:55 | 25.24697 | 55.37867 | 24 ft | 11 kts | 121° |
| 2026-05-07 14:55 | 25.24689 | 55.37958 | 23 ft | 13 kts | 62° |
| 2026-05-07 14:55 | 25.24759 | 55.38012 | 25 ft | 11 kts | 14° |
| 2026-05-07 14:55 | 25.24834 | 55.37982 | 26 ft | 13 kts | 304° |
| 2026-05-07 14:56 | 25.24907 | 55.37845 | 30 ft | 44 kts | 301° |
| 2026-05-07 14:56 | 25.25181 | 55.37352 | 27 ft | 106 kts | 301° |
| 2026-05-07 14:56 | 25.25648 | 55.36506 | 27 ft | 153 kts | 301° |
| 2026-05-07 14:56 | 25.26247 | 55.35425 | 300 ft | 171 kts | 302° |
| 2026-05-07 14:57 | 25.26833 | 55.34317 | 998 ft | 165 kts | 298° |
| 2026-05-07 14:57 | 25.27431 | 55.33237 | 1661 ft | 165 kts | 299° |
| 2026-05-07 14:57 | 25.28056 | 55.32123 | 2012 ft | 174 kts | 299° |
| 2026-05-07 14:57 | 25.28702 | 55.30969 | 2330 ft | 183 kts | 299° |
| 2026-05-07 14:58 | 25.29174 | 55.29660 | 2696 ft | 186 kts | 276° |
| 2026-05-07 14:58 | 25.29034 | 55.28224 | 3065 ft | 195 kts | 248° |
| 2026-05-07 14:58 | 25.28274 | 55.26995 | 3501 ft | 200 kts | 230° |
| 2026-05-07 14:58 | 25.27411 | 55.25803 | 3978 ft | 202 kts | 238° |
| 2026-05-07 14:59 | 25.26797 | 55.24380 | 4391 ft | 208 kts | 251° |
| 2026-05-07 14:59 | 25.26408 | 55.22824 | 4840 ft | 213 kts | 258° |
| 2026-05-07 14:59 | 25.26130 | 55.21152 | 5132 ft | 229 kts | 261° |
| 2026-05-07 14:59 | 25.25780 | 55.19434 | 5710 ft | 231 kts | 252° |
| 2026-05-07 15:00 | 25.25131 | 55.17765 | 6138 ft | 244 kts | 239° |
| 2026-05-07 15:00 | 25.24011 | 55.16343 | 6625 ft | 250 kts | 214° |
| 2026-05-07 15:00 | 25.22347 | 55.15697 | 6937 ft | 267 kts | 183° |
| 2026-05-07 15:00 | 25.20410 | 55.15924 | 7112 ft | 291 kts | 164° |
| 2026-05-07 15:01 | 25.18430 | 55.16742 | 7274 ft | 316 kts | 155° |
| 2026-05-07 15:01 | 25.17078 | 55.17482 | 7161 ft | 339 kts | 152° |
| 2026-05-07 15:01 | 25.15122 | 55.18906 | 8103 ft | 323 kts | 140° |
| 2026-05-07 15:01 | 25.13632 | 55.20773 | 8850 ft | 333 kts | 125° |
| 2026-05-07 15:02 | 25.12594 | 55.23053 | 9668 ft | 328 kts | 111° |
| 2026-05-07 15:02 | 25.12003 | 55.25488 | 10459 ft | 322 kts | 103° |
| 2026-05-07 15:02 | 25.11578 | 55.27873 | 11479 ft | 315 kts | 102° |
| 2026-05-07 15:02 | 25.11186 | 55.30290 | 11845 ft | 329 kts | 101° |
| 2026-05-07 15:03 | 25.10722 | 55.32865 | 11822 ft | 353 kts | 105° |
| 2026-05-07 15:03 | 25.09961 | 55.35522 | 11634 ft | 379 kts | 113° |
| 2026-05-07 15:03 | 25.08986 | 55.38287 | 11944 ft | 382 kts | 111° |
| 2026-05-07 15:03 | 25.08128 | 55.41006 | 12642 ft | 373 kts | 110° |